• Join FlightAware (Why Join?)
  • Login
  • US Flag 
10:51PM EDT


 

Airport Tracker/Info


-or-


 

Live Flight TrackerFlight Track Log ✈ ASQ4577 ✈ 14-May-2013 ✈ KCLE - KALB

Flight Track Log - Related Links

Times and Time Zones

All times are in EDT time to prevent confusion due to time zone crossing. See the ASQ4577 flight status page for this flight to view local times or setup timezone preferences in your user account.

Time Position Orientation Groundspeed Altitude Reporting Facility
EDT Latitude Longitude Course Direction KTS MPH feet Rate Location/Type
08:03PM 41.3939 -81.8869 293° West 182 209 2,300  Level Cleveland Center
08:05PM 41.4219 -81.9733 293° West 240 276 6,300 2,700 Climbing Cleveland Center
08:06PM 41.4889 -81.9692 North 216 249 9,000 2,340 Climbing Cleveland Center
08:07PM 41.5397 -81.8869 50° Northeast 240 276 11,000 1,500 Climbing Cleveland Center
08:08PM 41.6033 -81.7911 48° Northeast 290 334 12,000 1,320 Climbing Cleveland Center
08:09PM 41.6669 -81.6867 51° Northeast 345 397 13,700 1,680 Climbing Cleveland Center
08:10PM 41.7347 -81.5850 48° Northeast 359 413 15,400 1,500 Climbing Cleveland Center
08:11PM 41.8022 -81.4772 50° Northeast 365 420 16,700 1,200 Climbing Cleveland Center
08:12PM 41.8469 -81.3636 62° Northeast 373 429 17,900 1,500 Climbing Cleveland Center
08:13PM 41.8728 -81.2161 77° East 381 438 19,800 1,800 Climbing Cleveland Center
08:14PM 41.8944 -81.0658 79° East 400 460 21,600 1,560 Climbing Cleveland Center
08:16PM 41.9389 -80.7617 79° East 411 473 24,600 1,440 Climbing Cleveland Center
08:17PM 41.9642 -80.5944 78° East 411 473 26,000 1,440 Climbing Cleveland Center
08:18PM 41.9869 -80.4406 79° East 411 473 27,500 1,440 Climbing Cleveland Center
08:19PM 42.0117 -80.2814 78° East 416 479 28,900 1,380 Climbing Cleveland Center
08:20PM 42.0319 -80.1247 80° East 426 490 30,300 1,020 Climbing Cleveland Center
08:21PM 42.0542 -79.9681 79° East 426 490 31,000 300 Climbing Cleveland Center
08:22PM 42.0781 -79.7942 79° East 438 504 31,000  Level Cleveland Center
08:23PM 42.1039 -79.6206 79° East 458 527 31,000  Level Cleveland Center
08:24PM 42.1272 -79.4436 80° East 469 540 31,000  Level Cleveland Center
08:25PM 42.1506 -79.2642 80° East 474 545 31,000  Level Cleveland Center
08:26PM 42.1733 -79.0872 80° East 479 551 31,000  Level Cleveland Center
08:27PM 42.1981 -78.9128 79° East 479 551 31,000  Level Cleveland Center
08:28PM 42.2206 -78.7550 79° East 474 545 31,000  Level Cleveland Center
08:29PM 42.2428 -78.5806 80° East 468 539 31,000  Level Cleveland Center
08:30PM 42.2647 -78.4114 80° East 468 539 31,000  Level Cleveland Center
08:31PM 42.2844 -78.2425 81° East 468 539 31,000  Level Cleveland Center
08:32PM 42.3058 -78.0731 80° East 468 539 31,000  Level Cleveland Center
08:33PM 42.3306 -77.8811 80° East 468 539 31,000  Level Cleveland Center
08:34PM 42.3514 -77.7033 81° East 468 539 31,000  Level Cleveland Center
08:35PM 42.3719 -77.5336 81° East 468 539 31,000  Level Cleveland Center
08:36PM 42.3922 -77.3583 81° East 468 539 31,000  Level Cleveland Center
08:37PM 42.4122 -77.1858 81° East 468 539 31,000 -300 Level Cleveland Center
08:38PM 42.4436 -76.9086 81° East 462 532 30,300 -540 Descending Boston Center
08:39PM 42.4631 -76.7356 81° East 462 532 29,700 -660 Descending Boston Center
08:40PM 42.4819 -76.5594 82° East 462 532 29,000 -360 Descending Boston Center
08:41PM 42.5008 -76.3803 82° East 467 537 29,000 -120 Level Boston Center
08:42PM 42.5189 -76.2153 82° East 472 543 28,800 -1,080 Descending Boston Center
08:43PM 42.5369 -76.0472 82° East 472 543 26,900 -1,920 Descending Boston Center
08:44PM 42.5550 -75.8650 82° East 472 543 25,000 -1,920 Descending Boston Center
08:45PM 42.5458 -75.6839 94° East 472 543 23,100 -2,040 Descending Boston Center
08:46PM 42.5111 -75.5103 105° East 478 550 21,000 -2,280 Descending Boston Center
08:47PM 42.4842 -75.3400 102° East 478 550 18,600 -2,400 Descending Boston Center
08:48PM 42.4569 -75.1783 103° East 453 521 16,300 -2,340 Descending Boston Center
08:49PM 42.4356 -75.0256 101° East 431 496 14,000 -2,160 Descending Boston Center
08:50PM 42.4178 -74.8869 100° East 400 460 12,000 -1,620 Descending Boston Center
08:51PM 42.4456 -74.7531 74° East 365 420 11,000 -540 Descending Boston Center
08:52PM 42.4900 -74.6167 66° East 354 407 11,000  Level Boston Center
08:53PM 42.5233 -74.5136 66° East 341 392 11,000 -780 Level Boston Center
08:54PM 42.5586 -74.4047 66° East 301 346 9,500 -1,920 Descending Boston Center
08:55PM 42.5831 -74.3097 71° East 267 307 7,200 -2,100 Descending Boston Center
08:56PM 42.5969 -74.2142 79° East 262 302 5,300 -1,560 Descending Boston Center
08:57PM 42.6131 -74.1244 76° East 251 289 4,100 -660 Descending Boston Center
08:58PM 42.6244 -74.0514 78° East 231 266 4,000 -60 Descending Boston Center
08:59PM 42.6361 -73.9697 79° East 226 260 4,000 -420 Level Boston Center
09:00PM 42.6453 -73.8908 81° East 221 254 3,200 -660 Descending Boston Center
09:01PM 42.6589 -73.8036 78° East 221 254 2,700 7,380 Descending Boston Center
09:02PM 42.6703 -73.7250 79° East 221 254 18,000 7,620 Climbing Boston Center
09:03PM 42.6817 -73.6489 78° East 221 254 18,000  Level Boston Center
09:04PM 42.6928 -73.5700 79° East 221 254 18,000  Level Boston Center
09:05PM 42.6972 -73.5389 79° East 221 254 18,000  Level Boston Center
09:07PM 42.7268 -73.6883 285° West  Level Estimated